sensor_id;sensor_type;location;lat;lon;timestamp;pressure;altitude;pressure_sealevel;temperature;humidity
8160;BME280;27404;52.398;9.646;2023-02-16T00:00:49;101640.41;;;0.25;100.00
8160;BME280;27404;52.398;9.646;2023-02-16T00:03:19;101643.38;;;0.22;100.00
8160;BME280;27404;52.398;9.646;2023-02-16T00:05:45;101648.06;;;0.29;100.00
8160;BME280;27404;52.398;9.646;2023-02-16T00:08:11;101647.63;;;0.34;100.00
8160;BME280;27404;52.398;9.646;2023-02-16T00:10:37;101639.44;;;0.26;100.00
8160;BME280;27404;52.398;9.646;2023-02-16T00:13:32;101645.66;;;0.17;100.00
8160;BME280;27404;52.398;9.646;2023-02-16T00:16:19;101642.69;;;0.20;100.00
8160;BME280;27404;52.398;9.646;2023-02-16T00:18:46;101630.38;;;0.17;100.00
8160;BME280;27404;52.398;9.646;2023-02-16T00:21:12;101627.13;;;0.13;100.00
8160;BME280;27404;52.398;9.646;2023-02-16T00:23:37;101627.13;;;0.13;100.00
8160;BME280;27404;52.398;9.646;2023-02-16T00:26:03;101632.66;;;0.32;100.00
8160;BME280;27404;52.398;9.646;2023-02-16T00:28:29;101627.84;;;0.25;100.00
8160;BME280;27404;52.398;9.646;2023-02-16T00:30:54;101633.91;;;0.18;100.00
8160;BME280;27404;52.398;9.646;2023-02-16T00:33:20;101637.03;;;0.13;100.00
8160;BME280;27404;52.398;9.646;2023-02-16T00:35:46;101638.31;;;0.09;100.00
8160;BME280;27404;52.398;9.646;2023-02-16T00:38:12;101629.69;;;0.15;100.00
8160;BME280;27404;52.398;9.646;2023-02-16T00:40:39;101636.31;;;0.11;100.00
8160;BME280;27404;52.398;9.646;2023-02-16T00:43:06;101630.53;;;0.06;100.00
8160;BME280;27404;52.398;9.646;2023-02-16T00:45:35;101628.13;;;0.03;100.00
8160;BME280;27404;52.398;9.646;2023-02-16T00:48:01;101626.84;;;-0.03;100.00
8160;BME280;27404;52.398;9.646;2023-02-16T00:50:32;101636.19;;;0.03;100.00
8160;BME280;27404;52.398;9.646;2023-02-16T00:52:58;101630.38;;;0.07;100.00
8160;BME280;27404;52.398;9.646;2023-02-16T00:55:30;101633.91;;;0.18;100.00
8160;BME280;27404;52.398;9.646;2023-02-16T01:00:29;101626.25;;;0.03;100.00
8160;BME280;27404;52.398;9.646;2023-02-16T01:03:01;101623.16;;;0.08;100.00
8160;BME280;27404;52.398;9.646;2023-02-16T01:05:27;101616.94;;;0.07;100.00
8160;BME280;27404;52.398;9.646;2023-02-16T01:07:52;101623.47;;;-0.05;100.00
8160;BME280;27404;52.398;9.646;2023-02-16T01:10:37;101620.75;;;-0.15;100.00
8160;BME280;27404;52.398;9.646;2023-02-16T01:13:22;101617.34;;;-0.17;100.00
8160;BME280;27404;52.398;9.646;2023-02-16T01:15:49;101622.88;;;-0.19;100.00
8160;BME280;27404;52.398;9.646;2023-02-16T01:18:16;101612.25;;;-0.20;100.00
8160;BME280;27404;52.398;9.646;2023-02-16T01:20:42;101616.63;;;-0.19;100.00
8160;BME280;27404;52.398;9.646;2023-02-16T01:23:08;101611.16;;;-0.18;100.00
8160;BME280;27404;52.398;9.646;2023-02-16T01:25:35;101614.53;;;-0.16;100.00
8160;BME280;27404;52.398;9.646;2023-02-16T01:28:00;101611.69;;;-0.14;100.00
8160;BME280;27404;52.398;9.646;2023-02-16T01:30:26;101612.84;;;-0.07;100.00
8160;BME280;27404;52.398;9.646;2023-02-16T01:32:52;101614.69;;;-0.07;100.00
8160;BME280;27404;52.398;9.646;2023-02-16T01:35:23;101613.81;;;-0.08;100.00
8160;BME280;27404;52.398;9.646;2023-02-16T01:37:52;101621.19;;;-0.10;100.00
8160;BME280;27404;52.398;9.646;2023-02-16T01:43:09;101607.19;;;-0.13;100.00
8160;BME280;27404;52.398;9.646;2023-02-16T01:45:43;101605.63;;;-0.16;100.00
8160;BME280;27404;52.398;9.646;2023-02-16T01:48:23;101609.44;;;-0.19;100.00
8160;BME280;27404;52.398;9.646;2023-02-16T01:51:10;101613.41;;;-0.23;100.00
8160;BME280;27404;52.398;9.646;2023-02-16T01:53:39;101604.47;;;-0.23;100.00
8160;BME280;27404;52.398;9.646;2023-02-16T01:56:50;101595.97;;;-0.28;100.00
8160;BME280;27404;52.398;9.646;2023-02-16T02:01:59;101587.09;;;-0.39;100.00
8160;BME280;27404;52.398;9.646;2023-02-16T02:04:37;101585.78;;;-0.45;100.00
8160;BME280;27404;52.398;9.646;2023-02-16T02:11:10;101582.94;;;-0.53;100.00
8160;BME280;27404;52.398;9.646;2023-02-16T02:13:21;101571.50;;;-0.55;100.00
8160;BME280;27404;52.398;9.646;2023-02-16T02:15:50;101575.44;;;-0.59;100.00
8160;BME280;27404;52.398;9.646;2023-02-16T02:18:16;101571.50;;;-0.65;100.00
8160;BME280;27404;52.398;9.646;2023-02-16T02:26:55;101575.16;;;-0.76;100.00
8160;BME280;27404;52.398;9.646;2023-02-16T02:29:37;101571.34;;;-0.73;100.00
8160;BME280;27404;52.398;9.646;2023-02-16T02:32:28;101583.06;;;-0.64;100.00
8160;BME280;27404;52.398;9.646;2023-02-16T02:43:40;101576.78;;;-0.94;100.00
8160;BME280;27404;52.398;9.646;2023-02-16T02:46:24;101572.38;;;-1.05;100.00
8160;BME280;27404;52.398;9.646;2023-02-16T02:48:51;101577.88;;;-1.07;100.00
8160;BME280;27404;52.398;9.646;2023-02-16T02:51:17;101576.63;;;-1.02;100.00
8160;BME280;27404;52.398;9.646;2023-02-16T02:54:18;101573.38;;;-1.06;100.00
8160;BME280;27404;52.398;9.646;2023-02-16T02:57:10;101584.94;;;-1.06;100.00
8160;BME280;27404;52.398;9.646;2023-02-16T03:05:58;101583.94;;;-1.14;100.00
8160;BME280;27404;52.398;9.646;2023-02-16T03:08:29;101580.66;;;-1.18;100.00
8160;BME280;27404;52.398;9.646;2023-02-16T03:11:14;101581.06;;;-1.23;100.00
8160;BME280;27404;52.398;9.646;2023-02-16T03:14:03;101580.88;;;-1.31;100.00
8160;BME280;27404;52.398;9.646;2023-02-16T03:16:33;101582.13;;;-1.35;100.00
8160;BME280;27404;52.398;9.646;2023-02-16T03:19:01;101588.63;;;-1.38;100.00
8160;BME280;27404;52.398;9.646;2023-02-16T03:21:47;101578.75;;;-1.37;100.00
8160;BME280;27404;52.398;9.646;2023-02-16T03:24:31;101582.56;;;-1.40;100.00
8160;BME280;27404;52.398;9.646;2023-02-16T03:27:28;101574.88;;;-1.44;100.00
8160;BME280;27404;52.398;9.646;2023-02-16T03:30:14;101581.13;;;-1.44;100.00
8160;BME280;27404;52.398;9.646;2023-02-16T03:32:42;101574.78;;;-1.43;100.00
8160;BME280;27404;52.398;9.646;2023-02-16T03:35:09;101576.59;;;-1.43;100.00
8160;BME280;27404;52.398;9.646;2023-02-16T03:37:40;101563.91;;;-1.41;100.00
8160;BME280;27404;52.398;9.646;2023-02-16T03:40:08;101562.91;;;-1.40;100.00
8160;BME280;27404;52.398;9.646;2023-02-16T03:42:59;101577.31;;;-1.41;100.00
8160;BME280;27404;52.398;9.646;2023-02-16T03:45:25;101564.50;;;-1.38;100.00
8160;BME280;27404;52.398;9.646;2023-02-16T03:47:52;101566.19;;;-1.37;100.00
8160;BME280;27404;52.398;9.646;2023-02-16T03:50:18;101560.94;;;-1.38;100.00
8160;BME280;27404;52.398;9.646;2023-02-16T03:52:43;101560.13;;;-1.39;100.00
8160;BME280;27404;52.398;9.646;2023-02-16T03:55:08;101555.13;;;-1.43;100.00
8160;BME280;27404;52.398;9.646;2023-02-16T03:57:34;101552.00;;;-1.49;100.00
8160;BME280;27404;52.398;9.646;2023-02-16T03:59:59;101550.91;;;-1.46;100.00
8160;BME280;27404;52.398;9.646;2023-02-16T04:02:27;101562.47;;;-1.45;100.00
8160;BME280;27404;52.398;9.646;2023-02-16T04:04:52;101560.75;;;-1.46;100.00
8160;BME280;27404;52.398;9.646;2023-02-16T04:07:18;101562.88;;;-1.50;100.00
8160;BME280;27404;52.398;9.646;2023-02-16T04:09:43;101550.03;;;-1.46;100.00
8160;BME280;27404;52.398;9.646;2023-02-16T04:12:10;101559.25;;;-1.39;100.00
8160;BME280;27404;52.398;9.646;2023-02-16T04:14:55;101552.59;;;-1.45;100.00
8160;BME280;27404;52.398;9.646;2023-02-16T04:17:21;101550.03;;;-1.46;100.00
8160;BME280;27404;52.398;9.646;2023-02-16T04:19:46;101561.03;;;-1.50;100.00
8160;BME280;27404;52.398;9.646;2023-02-16T04:22:11;101554.41;;;-1.45;100.00
8160;BME280;27404;52.398;9.646;2023-02-16T04:24:37;101554.41;;;-1.45;100.00
8160;BME280;27404;52.398;9.646;2023-02-16T04:27:02;101555.84;;;-1.41;100.00
8160;BME280;27404;52.398;9.646;2023-02-16T04:29:28;101551.63;;;-1.44;100.00
8160;BME280;27404;52.398;9.646;2023-02-16T04:31:54;101546.81;;;-1.40;100.00
8160;BME280;27404;52.398;9.646;2023-02-16T04:34:20;101538.66;;;-1.39;100.00
8160;BME280;27404;52.398;9.646;2023-02-16T04:36:45;101540.09;;;-1.35;100.00
8160;BME280;27404;52.398;9.646;2023-02-16T04:39:10;101543.06;;;-1.28;100.00
8160;BME280;27404;52.398;9.646;2023-02-16T04:41:36;101533.06;;;-1.26;100.00
8160;BME280;27404;52.398;9.646;2023-02-16T04:44:01;101542.97;;;-1.16;100.00
8160;BME280;27404;52.398;9.646;2023-02-16T04:46:27;101527.72;;;-1.16;100.00
8160;BME280;27404;52.398;9.646;2023-02-16T04:48:52;101523.66;;;-1.10;100.00
8160;BME280;27404;52.398;9.646;2023-02-16T04:51:18;101533.13;;;-0.96;100.00
8160;BME280;27404;52.398;9.646;2023-02-16T04:53:43;101525.38;;;-0.90;100.00
8160;BME280;27404;52.398;9.646;2023-02-16T04:56:10;101519.88;;;-0.78;100.00
8160;BME280;27404;52.398;9.646;2023-02-16T04:58:35;101516.94;;;-0.75;100.00
8160;BME280;27404;52.398;9.646;2023-02-16T05:01:01;101521.31;;;-0.74;100.00
8160;BME280;27404;52.398;9.646;2023-02-16T05:03:27;101524.69;;;-0.72;100.00
8160;BME280;27404;52.398;9.646;2023-02-16T05:05:52;101521.03;;;-0.71;100.00
8160;BME280;27404;52.398;9.646;2023-02-16T05:08:17;101530.50;;;-0.67;100.00
8160;BME280;27404;52.398;9.646;2023-02-16T05:10:43;101526.00;;;-0.66;100.00
8160;BME280;27404;52.398;9.646;2023-02-16T05:13:09;101539.00;;;-0.62;100.00
8160;BME280;27404;52.398;9.646;2023-02-16T05:15:53;101535.16;;;-0.59;100.00
8160;BME280;27404;52.398;9.646;2023-02-16T05:18:19;101540.25;;;-0.56;100.00
8160;BME280;27404;52.398;9.646;2023-02-16T05:20:45;101543.97;;;-0.47;100.00
8160;BME280;27404;52.398;9.646;2023-02-16T05:23:29;101538.44;;;-0.46;100.00
8160;BME280;27404;52.398;9.646;2023-02-16T05:25:54;101530.09;;;-0.52;100.00
8160;BME280;27404;52.398;9.646;2023-02-16T05:28:20;101540.81;;;-0.62;100.00
8160;BME280;27404;52.398;9.646;2023-02-16T05:30:45;101528.09;;;-0.70;100.00
8160;BME280;27404;52.398;9.646;2023-02-16T05:33:11;101536.28;;;-0.81;100.00
8160;BME280;27404;52.398;9.646;2023-02-16T05:35:36;101529.34;;;-0.84;100.00
8160;BME280;27404;52.398;9.646;2023-02-16T05:38:02;101525.97;;;-0.86;100.00
8160;BME280;27404;52.398;9.646;2023-02-16T05:40:27;101530.91;;;-0.91;100.00
8160;BME280;27404;52.398;9.646;2023-02-16T05:42:53;101538.94;;;-0.91;100.00
8160;BME280;27404;52.398;9.646;2023-02-16T05:45:19;101543.19;;;-0.88;100.00
8160;BME280;27404;52.398;9.646;2023-02-16T05:47:45;101544.31;;;-0.91;100.00
8160;BME280;27404;52.398;9.646;2023-02-16T05:50:10;101543.44;;;-0.92;100.00
8160;BME280;27404;52.398;9.646;2023-02-16T05:52:36;101542.88;;;-0.95;100.00
8160;BME280;27404;52.398;9.646;2023-02-16T05:55:02;101546.56;;;-0.96;100.00
8160;BME280;27404;52.398;9.646;2023-02-16T05:57:27;101541.19;;;-0.96;100.00
8160;BME280;27404;52.398;9.646;2023-02-16T05:59:53;101544.72;;;-0.96;100.00
8160;BME280;27404;52.398;9.646;2023-02-16T06:02:18;101538.06;;;-0.92;100.00
8160;BME280;27404;52.398;9.646;2023-02-16T06:04:44;101548.72;;;-0.80;100.00
8160;BME280;27404;52.398;9.646;2023-02-16T06:07:09;101552.69;;;-0.75;100.00
8160;BME280;27404;52.398;9.646;2023-02-16T06:09:35;101550.00;;;-0.65;100.00
8160;BME280;27404;52.398;9.646;2023-02-16T06:12:00;101551.44;;;-0.61;100.00
8160;BME280;27404;52.398;9.646;2023-02-16T06:14:25;101554.13;;;-0.61;100.00
8160;BME280;27404;52.398;9.646;2023-02-16T06:16:51;101548.88;;;-0.62;100.00
8160;BME280;27404;52.398;9.646;2023-02-16T06:19:17;101552.25;;;-0.60;100.00
8160;BME280;27404;52.398;9.646;2023-02-16T06:21:44;101548.59;;;-0.59;100.00
8160;BME280;27404;52.398;9.646;2023-02-16T06:24:11;101544.38;;;-0.62;100.00
8160;BME280;27404;52.398;9.646;2023-02-16T06:26:37;101535.31;;;-0.61;100.00
8160;BME280;27404;52.398;9.646;2023-02-16T06:29:03;101544.66;;;-0.65;100.00
8160;BME280;27404;52.398;9.646;2023-02-16T06:31:28;101537.56;;;-0.66;100.00
8160;BME280;27404;52.398;9.646;2023-02-16T06:33:55;101546.19;;;-0.62;100.00
8160;BME280;27404;52.398;9.646;2023-02-16T06:36:21;101550.44;;;-0.60;100.00
8160;BME280;27404;52.398;9.646;2023-02-16T06:38:47;101552.41;;;-0.62;100.00
8160;BME280;27404;52.398;9.646;2023-02-16T06:41:13;101558.50;;;-0.60;100.00
8160;BME280;27404;52.398;9.646;2023-02-16T06:44:16;101560.47;;;-0.62;100.00
8160;BME280;27404;52.398;9.646;2023-02-16T06:46:43;101562.72;;;-0.67;100.00
8160;BME280;27404;52.398;9.646;2023-02-16T06:49:19;101564.44;;;-0.66;100.00
8160;BME280;27404;52.398;9.646;2023-02-16T06:51:45;101564.59;;;-0.67;100.00
8160;BME280;27404;52.398;9.646;2023-02-16T06:54:11;101566.28;;;-0.66;100.00
8160;BME280;27404;52.398;9.646;2023-02-16T06:56:37;101560.91;;;-0.66;100.00
8160;BME280;27404;52.398;9.646;2023-02-16T06:59:03;101550.16;;;-0.66;100.00
8160;BME280;27404;52.398;9.646;2023-02-16T07:01:28;101555.09;;;-0.62;100.00
8160;BME280;27404;52.398;9.646;2023-02-16T07:03:55;101560.75;;;-0.55;100.00
8160;BME280;27404;52.398;9.646;2023-02-16T07:06:22;101545.94;;;-0.49;100.00
8160;BME280;27404;52.398;9.646;2023-02-16T07:08:48;101564.63;;;-0.38;100.00
8160;BME280;27404;52.398;9.646;2023-02-16T07:11:14;101562.91;;;-0.29;100.00
8160;BME280;27404;52.398;9.646;2023-02-16T07:13:41;101556.69;;;-0.20;100.00
8160;BME280;27404;52.398;9.646;2023-02-16T07:16:07;101566.44;;;-0.09;100.00
8160;BME280;27404;52.398;9.646;2023-02-16T07:18:33;101569.25;;;-0.01;100.00
8160;BME280;27404;52.398;9.646;2023-02-16T07:20:59;101569.69;;;0.05;100.00
8160;BME280;27404;52.398;9.646;2023-02-16T07:23:25;101569.94;;;0.11;100.00
8160;BME280;27404;52.398;9.646;2023-02-16T07:25:50;101566.69;;;0.18;100.00
8160;BME280;27404;52.398;9.646;2023-02-16T07:28:16;101558.91;;;0.24;100.00
8160;BME280;27404;52.398;9.646;2023-02-16T07:30:42;101561.03;;;0.31;100.00
8160;BME280;27404;52.398;9.646;2023-02-16T07:33:08;101555.72;;;0.39;100.00
8160;BME280;27404;52.398;9.646;2023-02-16T07:35:34;101563.63;;;0.50;100.00
8160;BME280;27404;52.398;9.646;2023-02-16T07:38:00;101558.66;;;0.65;100.00
8160;BME280;27404;52.398;9.646;2023-02-16T07:40:27;101566.38;;;0.78;100.00
8160;BME280;27404;52.398;9.646;2023-02-16T07:42:53;101574.97;;;0.92;100.00
8160;BME280;27404;52.398;9.646;2023-02-16T07:45:18;101572.63;;;1.07;100.00
8160;BME280;27404;52.398;9.646;2023-02-16T07:47:44;101580.59;;;1.26;100.00
8160;BME280;27404;52.398;9.646;2023-02-16T07:50:10;101576.25;;;1.43;100.00
8160;BME280;27404;52.398;9.646;2023-02-16T07:52:35;101573.56;;;1.61;100.00
8160;BME280;27404;52.398;9.646;2023-02-16T07:55:01;101573.53;;;1.80;100.00
8160;BME280;27404;52.398;9.646;2023-02-16T07:57:28;101570.47;;;1.92;100.00
8160;BME280;27404;52.398;9.646;2023-02-16T07:59:53;101567.63;;;1.94;100.00
8160;BME280;27404;52.398;9.646;2023-02-16T08:02:20;101569.53;;;2.02;100.00
8160;BME280;27404;52.398;9.646;2023-02-16T08:04:47;101557.97;;;2.10;100.00
8160;BME280;27404;52.398;9.646;2023-02-16T08:07:14;101565.25;;;2.17;100.00
8160;BME280;27404;52.398;9.646;2023-02-16T08:09:40;101567.56;;;2.30;100.00
8160;BME280;27404;52.398;9.646;2023-02-16T08:12:10;101571.72;;;2.51;100.00
8160;BME280;27404;52.398;9.646;2023-02-16T08:14:36;101571.72;;;2.77;100.00
8160;BME280;27404;52.398;9.646;2023-02-16T08:17:03;101570.81;;;3.03;100.00
8160;BME280;27404;52.398;9.646;2023-02-16T08:19:28;101571.41;;;3.23;100.00
8160;BME280;27404;52.398;9.646;2023-02-16T08:21:54;101570.63;;;3.48;100.00
8160;BME280;27404;52.398;9.646;2023-02-16T08:24:19;101568.47;;;3.76;100.00
8160;BME280;27404;52.398;9.646;2023-02-16T08:26:45;101560.53;;;3.99;100.00
8160;BME280;27404;52.398;9.646;2023-02-16T08:29:14;101554.91;;;4.34;100.00
8160;BME280;27404;52.398;9.646;2023-02-16T08:31:43;101553.13;;;4.74;100.00
8160;BME280;27404;52.398;9.646;2023-02-16T08:34:11;101555.00;;;5.14;100.00
8160;BME280;27404;52.398;9.646;2023-02-16T08:36:39;101561.50;;;5.36;100.00
8160;BME280;27404;52.398;9.646;2023-02-16T08:39:09;101556.13;;;5.59;100.00
8160;BME280;27404;52.398;9.646;2023-02-16T08:41:36;101547.69;;;5.77;100.00
8160;BME280;27404;52.398;9.646;2023-02-16T08:44:02;101544.41;;;6.05;100.00
8160;BME280;27404;52.398;9.646;2023-02-16T08:46:32;101540.22;;;6.18;100.00
8160;BME280;27404;52.398;9.646;2023-02-16T08:48:59;101537.66;;;6.40;100.00
8160;BME280;27404;52.398;9.646;2023-02-16T08:51:27;101535.31;;;6.51;100.00
8160;BME280;27404;52.398;9.646;2023-02-16T08:53:53;101532.97;;;6.63;100.00
8160;BME280;27404;52.398;9.646;2023-02-16T08:56:20;101530.66;;;6.60;100.00
8160;BME280;27404;52.398;9.646;2023-02-16T08:58:45;101521.06;;;6.64;100.00
8160;BME280;27404;52.398;9.646;2023-02-16T09:01:12;101520.25;;;6.64;100.00
8160;BME280;27404;52.398;9.646;2023-02-16T09:03:40;101528.84;;;6.67;100.00
8160;BME280;27404;52.398;9.646;2023-02-16T09:06:08;101536.84;;;6.54;100.00
8160;BME280;27404;52.398;9.646;2023-02-16T09:08:34;101540.09;;;6.49;100.00
8160;BME280;27404;52.398;9.646;2023-02-16T09:11:06;101539.44;;;6.47;100.00
8160;BME280;27404;52.398;9.646;2023-02-16T09:13:34;101537.38;;;6.49;100.00
8160;BME280;27404;52.398;9.646;2023-02-16T09:16:14;101536.16;;;6.52;100.00
8160;BME280;27404;52.398;9.646;2023-02-16T09:18:41;101540.94;;;6.50;100.00
8160;BME280;27404;52.398;9.646;2023-02-16T09:21:10;101542.44;;;6.52;100.00
8160;BME280;27404;52.398;9.646;2023-02-16T09:23:40;101538.59;;;6.62;100.00
8160;BME280;27404;52.398;9.646;2023-02-16T09:26:05;101543.28;;;6.68;100.00
8160;BME280;27404;52.398;9.646;2023-02-16T09:28:33;101541.13;;;6.78;100.00
8160;BME280;27404;52.398;9.646;2023-02-16T09:30:59;101539.25;;;6.64;100.00
8160;BME280;27404;52.398;9.646;2023-02-16T09:33:25;101546.09;;;6.75;100.00
8160;BME280;27404;52.398;9.646;2023-02-16T09:35:51;101544.13;;;6.84;100.00
8160;BME280;27404;52.398;9.646;2023-02-16T09:38:18;101547.50;;;6.86;100.00
8160;BME280;27404;52.398;9.646;2023-02-16T09:40:44;101558.84;;;6.89;100.00
8160;BME280;27404;52.398;9.646;2023-02-16T09:43:34;101561.94;;;6.86;100.00
8160;BME280;27404;52.398;9.646;2023-02-16T09:46:03;101560.31;;;7.07;100.00
8160;BME280;27404;52.398;9.646;2023-02-16T09:48:45;101561.59;;;7.26;100.00
8160;BME280;27404;52.398;9.646;2023-02-16T09:51:20;101563.94;;;7.29;100.00
8160;BME280;27404;52.398;9.646;2023-02-16T09:53:53;101559.81;;;7.33;100.00
8160;BME280;27404;52.398;9.646;2023-02-16T09:58:56;101554.53;;;7.47;100.00
8160;BME280;27404;52.398;9.646;2023-02-16T10:06:55;101569.03;;;7.54;100.00
8160;BME280;27404;52.398;9.646;2023-02-16T10:09:25;101573.19;;;7.35;100.00
8160;BME280;27404;52.398;9.646;2023-02-16T10:12:03;101570.47;;;7.35;100.00
8160;BME280;27404;52.398;9.646;2023-02-16T10:14:43;101568.69;;;7.42;100.00
8160;BME280;27404;52.398;9.646;2023-02-16T10:26:06;101551.78;;;7.68;100.00
8160;BME280;27404;52.398;9.646;2023-02-16T10:31:41;101554.66;;;7.82;100.00
8160;BME280;27404;52.398;9.646;2023-02-16T10:42:45;101559.28;;;7.81;100.00
8160;BME280;27404;52.398;9.646;2023-02-16T10:47:45;101569.59;;;8.14;100.00
8160;BME280;27404;52.398;9.646;2023-02-16T10:50:21;101571.69;;;8.12;100.00
8160;BME280;27404;52.398;9.646;2023-02-16T10:52:47;101568.06;;;8.05;100.00
8160;BME280;27404;52.398;9.646;2023-02-16T10:55:14;101573.00;;;7.95;100.00
8160;BME280;27404;52.398;9.646;2023-02-16T10:57:40;101576.31;;;7.90;100.00
8160;BME280;27404;52.398;9.646;2023-02-16T11:00:11;101567.44;;;7.81;100.00
8160;BME280;27404;52.398;9.646;2023-02-16T11:02:44;101569.31;;;7.81;100.00
8160;BME280;27404;52.398;9.646;2023-02-16T11:07:53;101561.59;;;7.84;100.00
8160;BME280;27404;52.398;9.646;2023-02-16T11:10:37;101560.09;;;8.04;100.00
8160;BME280;27404;52.398;9.646;2023-02-16T11:13:04;101558.13;;;8.19;100.00
8160;BME280;27404;52.398;9.646;2023-02-16T11:15:30;101560.91;;;8.26;100.00
8160;BME280;27404;52.398;9.646;2023-02-16T11:20:30;101556.97;;;8.57;100.00
8160;BME280;27404;52.398;9.646;2023-02-16T11:23:16;101555.81;;;8.73;100.00
8160;BME280;27404;52.398;9.646;2023-02-16T11:28:25;101556.97;;;8.92;100.00
8160;BME280;27404;52.398;9.646;2023-02-16T11:30:59;101551.09;;;8.95;100.00
8160;BME280;27404;52.398;9.646;2023-02-16T11:33:27;101549.41;;;8.94;100.00
8160;BME280;27404;52.398;9.646;2023-02-16T11:35:54;101546.91;;;8.93;100.00
8160;BME280;27404;52.398;9.646;2023-02-16T11:38:33;101540.75;;;8.84;100.00
8160;BME280;27404;52.398;9.646;2023-02-16T11:41:01;101543.22;;;8.72;100.00
8160;BME280;27404;52.398;9.646;2023-02-16T11:43:31;101537.78;;;8.72;100.00
8160;BME280;27404;52.398;9.646;2023-02-16T11:46:02;101541.66;;;8.56;100.00
8160;BME280;27404;52.398;9.646;2023-02-16T11:48:31;101536.88;;;8.58;100.00
8160;BME280;27404;52.398;9.646;2023-02-16T11:51:08;101545.19;;;8.50;100.00
8160;BME280;27404;52.398;9.646;2023-02-16T11:53:36;101544.19;;;8.57;100.00
8160;BME280;27404;52.398;9.646;2023-02-16T11:56:20;101537.13;;;8.70;100.00
8160;BME280;27404;52.398;9.646;2023-02-16T11:59:15;101538.22;;;8.47;100.00
8160;BME280;27404;52.398;9.646;2023-02-16T12:04:40;101537.56;;;8.45;100.00
8160;BME280;27404;52.398;9.646;2023-02-16T12:18:30;101533.63;;;8.48;100.00
8160;BME280;27404;52.398;9.646;2023-02-16T12:26:03;101529.59;;;9.14;100.00
8160;BME280;27404;52.398;9.646;2023-02-16T12:31:20;101517.09;;;9.53;100.00
8160;BME280;27404;52.398;9.646;2023-02-16T12:34:41;101516.03;;;9.61;100.00
8160;BME280;27404;52.398;9.646;2023-02-16T12:36:56;101499.47;;;9.62;100.00
8160;BME280;27404;52.398;9.646;2023-02-16T12:42:07;101499.25;;;9.51;100.00
8160;BME280;27404;52.398;9.646;2023-02-16T12:44:45;101496.09;;;9.54;100.00
8160;BME280;27404;52.398;9.646;2023-02-16T12:47:22;101495.03;;;9.41;100.00
8160;BME280;27404;52.398;9.646;2023-02-16T12:49:59;101497.16;;;9.53;100.00
8160;BME280;27404;52.398;9.646;2023-02-16T12:52:42;101494.84;;;9.50;100.00
8160;BME280;27404;52.398;9.646;2023-02-16T12:55:22;101497.34;;;9.51;100.00
8160;BME280;27404;52.398;9.646;2023-02-16T13:00:48;101490.22;;;9.70;100.00
8160;BME280;27404;52.398;9.646;2023-02-16T13:03:23;101484.97;;;9.75;100.00
8160;BME280;27404;52.398;9.646;2023-02-16T13:08:50;101483.13;;;9.89;100.00
8160;BME280;27404;52.398;9.646;2023-02-16T13:11:24;101484.38;;;9.80;100.00
8160;BME280;27404;52.398;9.646;2023-02-16T13:13:55;101488.53;;;9.69;100.00
8160;BME280;27404;52.398;9.646;2023-02-16T13:16:52;101484.13;;;9.55;100.00
8160;BME280;27404;52.398;9.646;2023-02-16T13:19:19;101482.03;;;9.70;100.00
8160;BME280;27404;52.398;9.646;2023-02-16T13:32:16;101459.56;;;9.68;99.90
8160;BME280;27404;52.398;9.646;2023-02-16T13:35:07;101454.91;;;9.42;100.00
8160;BME280;27404;52.398;9.646;2023-02-16T13:40:17;101445.66;;;9.23;100.00
8160;BME280;27404;52.398;9.646;2023-02-16T13:45:21;101441.44;;;9.13;100.00
8160;BME280;27404;52.398;9.646;2023-02-16T13:47:50;101429.28;;;9.16;100.00
8160;BME280;27404;52.398;9.646;2023-02-16T13:52:53;101424.69;;;9.23;100.00
8160;BME280;27404;52.398;9.646;2023-02-16T13:55:36;101427.19;;;9.18;100.00
8160;BME280;27404;52.398;9.646;2023-02-16T14:00:39;101421.53;;;9.13;100.00
8160;BME280;27404;52.398;9.646;2023-02-16T14:05:45;101412.25;;;9.00;100.00
8160;BME280;27404;52.398;9.646;2023-02-16T14:08:22;101411.63;;;8.92;100.00
8160;BME280;27404;52.398;9.646;2023-02-16T14:13:44;101399.47;;;9.08;100.00
8160;BME280;27404;52.398;9.646;2023-02-16T14:16:32;101407.38;;;8.82;100.00
8160;BME280;27404;52.398;9.646;2023-02-16T14:21:44;101387.84;;;8.79;100.00
8160;BME280;27404;52.398;9.646;2023-02-16T14:24:21;101392.84;;;8.68;100.00
8160;BME280;27404;52.398;9.646;2023-02-16T14:26:58;101386.13;;;8.64;100.00
8160;BME280;27404;52.398;9.646;2023-02-16T14:29:29;101386.34;;;8.63;100.00
8160;BME280;27404;52.398;9.646;2023-02-16T14:32:02;101387.59;;;8.60;100.00
8160;BME280;27404;52.398;9.646;2023-02-16T14:34:35;101384.25;;;8.58;100.00
8160;BME280;27404;52.398;9.646;2023-02-16T14:39:41;101387.53;;;8.47;100.00
8160;BME280;27404;52.398;9.646;2023-02-16T14:42:29;101377.28;;;8.49;100.00
8160;BME280;27404;52.398;9.646;2023-02-16T14:45:08;101382.41;;;8.37;100.00
8160;BME280;27404;52.398;9.646;2023-02-16T14:48:00;101391.63;;;8.36;100.00
8160;BME280;27404;52.398;9.646;2023-02-16T14:57:00;101393.19;;;8.10;100.00
8160;BME280;27404;52.398;9.646;2023-02-16T15:02:38;101402.72;;;7.92;100.00
8160;BME280;27404;52.398;9.646;2023-02-16T15:05:21;101401.81;;;7.85;100.00
8160;BME280;27404;52.398;9.646;2023-02-16T15:08:00;101405.16;;;7.80;100.00
8160;BME280;27404;52.398;9.646;2023-02-16T15:10:27;101414.09;;;7.74;100.00
8160;BME280;27404;52.398;9.646;2023-02-16T15:12:56;101405.94;;;7.74;100.00
8160;BME280;27404;52.398;9.646;2023-02-16T15:15:45;101417.22;;;7.71;100.00
8160;BME280;27404;52.398;9.646;2023-02-16T15:18:22;101407.38;;;7.70;100.00
8160;BME280;27404;52.398;9.646;2023-02-16T15:20:50;101403.78;;;7.69;100.00
8160;BME280;27404;52.398;9.646;2023-02-16T15:26:14;101389.78;;;7.73;100.00
8160;BME280;27404;52.398;9.646;2023-02-16T15:29:15;101396.28;;;7.71;100.00
8160;BME280;27404;52.398;9.646;2023-02-16T15:31:36;101383.72;;;7.70;100.00
8160;BME280;27404;52.398;9.646;2023-02-16T15:34:09;101394.59;;;7.70;100.00
8160;BME280;27404;52.398;9.646;2023-02-16T15:36:42;101390.00;;;7.71;100.00
8160;BME280;27404;52.398;9.646;2023-02-16T15:39:31;101389.75;;;7.66;100.00